createdAt,value
2022-12-11T00:01:33.581Z,12.46
2022-12-11T00:03:33.611Z,12.41
2022-12-11T00:05:33.560Z,12.34
2022-12-11T00:07:33.644Z,12.66
2022-12-11T00:10:51.097Z,12.45
2022-12-11T00:12:51.124Z,12.52
2022-12-11T00:14:51.152Z,12.19
2022-12-11T00:16:51.252Z,12.25
2022-12-11T00:18:51.139Z,12.28
2022-12-11T00:20:51.081Z,12.3
2022-12-11T00:22:51.057Z,12.17
2022-12-11T00:26:25.803Z,12.31
2022-12-11T00:28:25.503Z,12.46
2022-12-11T00:30:25.531Z,12.55
2022-12-11T00:32:28.034Z,12.49
2022-12-11T00:34:25.520Z,12.63
2022-12-11T00:36:25.567Z,12.56
2022-12-11T00:38:25.534Z,12.59
2022-12-11T00:41:03.778Z,12.65
2022-12-11T00:43:03.718Z,12.71
2022-12-11T00:45:03.810Z,12.64
2022-12-11T00:47:03.749Z,12.71
2022-12-11T00:49:03.706Z,12.81
2022-12-11T00:51:03.836Z,12.64
2022-12-11T00:53:03.718Z,12.67
2022-12-11T00:56:46.895Z,12.8
2022-12-11T01:50:33.773Z,10.45
2022-12-11T01:52:33.739Z,10.86
2022-12-11T01:54:33.693Z,11.2
2022-12-11T01:56:33.766Z,11.6
2022-12-11T01:58:33.689Z,11.76
2022-12-11T02:00:33.693Z,11.84
2022-12-11T02:02:33.867Z,11.81
2022-12-11T02:04:33.685Z,12.01
2022-12-11T02:06:32.508Z,12.1
2022-12-11T02:08:32.533Z,11.99
2022-12-11T02:10:32.489Z,11.81
2022-12-11T02:12:32.550Z,11.94
2022-12-11T02:14:32.482Z,12.04
2022-12-11T02:16:32.483Z,11.99
2022-12-11T02:18:32.492Z,12.02
2022-12-11T02:21:14.348Z,12.15
2022-12-11T02:23:14.660Z,12.22
2022-12-11T02:25:14.327Z,12.27
2022-12-11T02:27:14.477Z,12.33
2022-12-11T02:29:14.348Z,12.49
2022-12-11T02:31:14.387Z,12.53
2022-12-11T02:33:14.335Z,12.53
2022-12-11T02:36:26.594Z,12.33
2022-12-11T02:38:26.649Z,12.28
2022-12-11T02:40:26.629Z,12.32
2022-12-11T02:42:26.572Z,12.51
2022-12-11T02:44:26.593Z,12.45
2022-12-11T02:46:26.583Z,12.31
2022-12-11T02:48:26.718Z,12.47
2022-12-11T02:51:50.300Z,12.34
2022-12-11T02:53:50.307Z,12.16
2022-12-11T02:55:50.274Z,12.52
2022-12-11T02:57:50.503Z,12.64
2022-12-11T02:59:50.421Z,12.73
2022-12-11T03:01:50.268Z,12.73
2022-12-11T03:03:50.260Z,12.72
2022-12-11T03:06:31.756Z,12.77
2022-12-11T03:08:31.716Z,12.62
2022-12-11T03:10:31.792Z,12.72
2022-12-11T03:12:31.713Z,12.75
2022-12-11T03:14:31.753Z,12.69
2022-12-11T03:16:31.825Z,12.74
2022-12-11T03:18:31.741Z,12.6
2022-12-11T03:22:02.908Z,12.74
2022-12-11T03:24:02.998Z,12.8
2022-12-11T03:26:02.911Z,12.58
2022-12-11T03:28:02.980Z,12.61
2022-12-11T03:30:02.934Z,12.65
2022-12-11T03:32:03.053Z,12.56
2022-12-11T03:34:02.906Z,12.66
2022-12-11T03:37:08.327Z,12.55
2022-12-11T03:39:08.322Z,12.58
2022-12-11T03:41:08.343Z,12.64
2022-12-11T03:43:08.326Z,12.57
2022-12-11T03:45:08.512Z,12.65
2022-12-11T03:47:08.356Z,12.63
2022-12-11T03:49:08.324Z,12.62
2022-12-11T03:51:46.009Z,12.61
2022-12-11T03:53:46.003Z,12.59
2022-12-11T03:55:46.047Z,12.69
2022-12-11T03:57:46.170Z,12.58
2022-12-11T03:59:46.003Z,12.61
2022-12-11T04:01:46.088Z,12.51
2022-12-11T04:03:46.021Z,12.47
2022-12-11T04:05:46.003Z,12.36
2022-12-11T04:07:00.521Z,12.42
2022-12-11T04:09:00.414Z,12.47
2022-12-11T04:11:00.419Z,12.5
2022-12-11T04:13:00.455Z,12.48
2022-12-11T04:15:00.394Z,12.43
2022-12-11T04:17:00.412Z,12.38
2022-12-11T04:19:00.391Z,12.38
2022-12-11T04:21:00.394Z,12.52
2022-12-11T04:22:38.912Z,12.43
2022-12-11T04:24:38.855Z,12.44
2022-12-11T04:26:38.871Z,12.47
2022-12-11T04:28:38.932Z,12.39
2022-12-11T04:30:38.944Z,12.47
2022-12-11T04:32:38.859Z,12.51
2022-12-11T04:34:38.880Z,12.45
2022-12-11T04:38:06.947Z,12.25
2022-12-11T04:40:06.958Z,12.12
2022-12-11T04:42:06.943Z,12.38
2022-12-11T04:44:06.917Z,12.3
2022-12-11T04:46:07.031Z,12.43
2022-12-11T04:48:06.907Z,12.35
2022-12-11T04:50:06.978Z,12.32
2022-12-11T04:52:42.593Z,12.33
2022-12-11T04:54:42.553Z,12.22
2022-12-11T04:56:42.599Z,12.36
2022-12-11T04:58:42.552Z,12.35
2022-12-11T05:00:42.614Z,12.29
2022-12-11T05:02:42.722Z,12.47
2022-12-11T05:04:42.550Z,12.57
2022-12-11T05:08:00.250Z,12.55
2022-12-11T05:10:00.243Z,12.53
2022-12-11T05:12:00.251Z,12.48
2022-12-11T05:14:00.239Z,12.42
2022-12-11T05:16:00.226Z,12.44
2022-12-11T05:18:00.219Z,12.36
2022-12-11T05:20:00.182Z,12.32
2022-12-11T05:23:14.917Z,12.31
2022-12-11T05:25:14.837Z,12.22
2022-12-11T05:27:14.883Z,12.36
2022-12-11T05:29:14.833Z,12.48
2022-12-11T05:31:15.005Z,12.4
2022-12-11T05:33:14.824Z,12.34
2022-12-11T05:35:14.853Z,12.43
2022-12-11T05:38:25.154Z,12.39
2022-12-11T05:40:25.198Z,12.55
2022-12-11T05:42:28.731Z,12.39
2022-12-11T05:44:25.150Z,12.56
2022-12-11T05:46:25.221Z,12.64
2022-12-11T05:48:25.209Z,12.55
2022-12-11T05:50:25.133Z,12.55
2022-12-11T05:53:07.454Z,12.69
2022-12-11T05:55:07.419Z,12.64
2022-12-11T05:57:07.409Z,12.78
2022-12-11T05:59:07.382Z,12.84
2022-12-11T06:01:07.449Z,12.82
2022-12-11T06:03:07.573Z,12.8
2022-12-11T06:05:07.486Z,13.04
2022-12-11T06:07:07.382Z,12.73
2022-12-11T06:08:12.737Z,12.67
2022-12-11T06:10:12.674Z,12.65
2022-12-11T06:12:12.641Z,12.44
2022-12-11T06:14:12.699Z,12.71
2022-12-11T06:16:12.738Z,12.86
2022-12-11T06:18:12.680Z,12.79
2022-12-11T06:20:12.752Z,12.72
2022-12-11T06:22:12.655Z,12.72
2022-12-11T06:23:38.071Z,13.04
2022-12-11T06:25:38.089Z,13.11
2022-12-11T06:27:38.104Z,13.19
2022-12-11T06:29:38.071Z,13.28
2022-12-11T06:31:38.132Z,13.31
2022-12-11T06:33:38.111Z,13.29
2022-12-11T06:35:41.896Z,13.37
2022-12-11T06:38:31.890Z,13.4
2022-12-11T06:40:31.976Z,13.31
2022-12-11T06:42:31.908Z,13.41
2022-12-11T06:44:31.895Z,13.39
2022-12-11T06:46:31.918Z,12.95
2022-12-11T06:48:31.879Z,13.19
2022-12-11T06:50:31.909Z,13.37
2022-12-11T06:52:31.907Z,13.42
2022-12-11T06:53:43.320Z,13.38
2022-12-11T06:55:43.380Z,13.36
2022-12-11T06:57:43.303Z,13.24
2022-12-11T06:59:43.360Z,13.51
2022-12-11T07:01:43.350Z,13.65
2022-12-11T07:03:43.370Z,13.56
2022-12-11T07:05:43.333Z,13.46
2022-12-11T07:07:43.337Z,13.53
2022-12-11T07:09:37.282Z,13.64
2022-12-11T07:11:37.230Z,13.78
2022-12-11T07:13:37.217Z,13.59
2022-12-11T07:15:40.429Z,13.82
2022-12-11T07:17:37.206Z,13.99
2022-12-11T07:19:37.300Z,13.88
2022-12-11T07:21:37.315Z,14.08
2022-12-11T07:24:42.177Z,14.1
2022-12-11T07:26:42.217Z,14.15
2022-12-11T07:28:42.153Z,14.1
2022-12-11T07:30:42.181Z,14.18
2022-12-11T07:32:42.248Z,14.28
2022-12-11T07:34:42.865Z,14.35
2022-12-11T07:36:42.216Z,14.52
2022-12-11T07:40:06.127Z,13.96
2022-12-11T07:42:06.232Z,14.31
2022-12-11T07:44:06.110Z,14.31
2022-12-11T07:46:06.169Z,14.26
2022-12-11T07:48:06.107Z,14.21
2022-12-11T07:50:06.122Z,14.24
2022-12-11T07:52:06.175Z,14.28
2022-12-11T07:54:53.880Z,14.22
2022-12-11T07:56:54.177Z,14.25
2022-12-11T07:58:53.864Z,14.34
2022-12-11T08:00:53.923Z,14.34
2022-12-11T08:02:53.930Z,14.26
2022-12-11T08:04:53.992Z,14.19
2022-12-11T08:06:53.990Z,14.17
2022-12-11T08:10:14.878Z,14.05
2022-12-11T08:12:14.813Z,14.13
2022-12-11T08:14:14.854Z,14.08
2022-12-11T08:16:14.894Z,14.11
2022-12-11T08:18:14.847Z,14.19
2022-12-11T08:20:14.823Z,14.4
2022-12-11T08:22:14.776Z,14.42
2022-12-11T08:25:37.049Z,14.23
2022-12-11T08:27:36.953Z,14.27
2022-12-11T08:29:37.240Z,14.23
2022-12-11T08:31:36.927Z,14.42
2022-12-11T08:33:36.958Z,14.73
2022-12-11T08:35:36.972Z,14.79
2022-12-11T08:37:36.963Z,14.67
2022-12-11T08:40:10.849Z,14.36
2022-12-11T08:42:10.820Z,14.58
2022-12-11T08:44:15.978Z,14.4
2022-12-11T08:46:10.824Z,14.54
2022-12-11T08:48:11.130Z,14.56
2022-12-11T08:50:10.882Z,14.55
2022-12-11T08:52:10.885Z,14.35
2022-12-11T08:55:56.699Z,14.4
2022-12-11T08:57:56.777Z,14.44
2022-12-11T08:59:56.672Z,14.35
2022-12-11T09:01:56.672Z,14.35
2022-12-11T09:03:56.741Z,14.37
2022-12-11T09:05:56.637Z,14.14
2022-12-11T09:07:56.711Z,14.2
2022-12-11T09:10:24.440Z,14.25
2022-12-11T09:12:24.308Z,14.4
2022-12-11T09:14:24.458Z,14.38
2022-12-11T09:16:24.349Z,14.59
2022-12-11T09:18:24.305Z,14.74
2022-12-11T09:20:24.368Z,14.49
2022-12-11T09:22:24.353Z,14.5
2022-12-11T09:25:47.870Z,14.67
2022-12-11T09:27:47.897Z,14.47
2022-12-11T09:29:47.903Z,14.64
2022-12-11T09:31:47.904Z,14.69
2022-12-11T09:33:47.882Z,14.54
2022-12-11T09:35:47.855Z,14.54
2022-12-11T09:37:47.876Z,14.72
2022-12-11T09:41:07.110Z,14.75
2022-12-11T09:43:07.097Z,14.67
2022-12-11T09:45:07.118Z,14.66
2022-12-11T09:47:07.275Z,14.58
2022-12-11T09:49:07.125Z,14.23
2022-12-11T09:51:07.099Z,14.56
2022-12-11T09:53:07.105Z,14.63
2022-12-11T09:56:07.117Z,14.91
2022-12-11T09:58:07.092Z,14.69
2022-12-11T10:00:07.190Z,14.79
2022-12-11T10:02:07.081Z,14.7
2022-12-11T10:04:07.039Z,14.73
2022-12-11T10:06:07.026Z,14.43
2022-12-11T10:08:07.123Z,14.51
2022-12-11T10:11:04.215Z,14.39
2022-12-11T10:13:04.201Z,14.4
2022-12-11T10:15:04.244Z,14.59
2022-12-11T10:17:04.147Z,14.71
2022-12-11T10:19:04.227Z,14.78
2022-12-11T10:21:04.233Z,14.85
2022-12-11T10:23:04.187Z,14.74
2022-12-11T10:26:21.785Z,14.53
2022-12-11T10:28:21.839Z,14.49
2022-12-11T10:30:21.806Z,14.51
2022-12-11T10:32:21.853Z,14.58
2022-12-11T10:34:21.940Z,14.47
2022-12-11T10:36:21.774Z,14.5
2022-12-11T10:38:21.813Z,14.54
2022-12-11T10:42:01.853Z,14.63
2022-12-11T10:44:01.871Z,14.63
2022-12-11T10:46:01.890Z,14.53
2022-12-11T10:48:01.908Z,14.51
2022-12-11T10:50:01.916Z,14.59
2022-12-11T10:52:01.857Z,14.68
2022-12-11T10:54:06.956Z,14.84
2022-12-11T10:56:50.746Z,14.85
2022-12-11T10:58:50.698Z,14.95
2022-12-11T11:00:50.894Z,15.03
2022-12-11T11:02:50.757Z,15.15
2022-12-11T11:04:51.011Z,15.19
2022-12-11T11:06:50.957Z,15.22
2022-12-11T11:08:50.703Z,15.21
2022-12-11T11:12:13.351Z,15.09
2022-12-11T11:14:13.363Z,15.11
2022-12-11T11:16:13.707Z,15.03
2022-12-11T11:18:13.232Z,15.03
2022-12-11T11:20:13.344Z,14.89
2022-12-11T11:22:13.328Z,14.61
2022-12-11T11:24:13.236Z,14.49
2022-12-11T11:27:11.454Z,14.74
2022-12-11T11:28:40.559Z,14.71
2022-12-11T11:30:40.512Z,14.77
2022-12-11T11:32:40.475Z,14.62
2022-12-11T11:34:40.510Z,14.59
2022-12-11T11:36:40.496Z,14.75
2022-12-11T11:38:40.468Z,14.46
2022-12-11T11:40:40.533Z,14.55
2022-12-11T11:42:45.874Z,14.71
2022-12-11T11:44:45.881Z,14.68
2022-12-11T11:46:45.905Z,14.5
2022-12-11T11:48:46.008Z,14.55
2022-12-11T11:50:45.907Z,14.6
2022-12-11T11:52:45.978Z,14.71
2022-12-11T11:54:45.897Z,14.67
2022-12-11T11:57:33.541Z,14.67
2022-12-11T11:59:33.486Z,14.76
2022-12-11T12:01:33.499Z,14.86
2022-12-11T12:03:33.544Z,14.89
2022-12-11T12:05:33.496Z,14.89
2022-12-11T12:07:33.504Z,14.81
2022-12-11T12:09:33.613Z,14.44
2022-12-11T12:12:47.620Z,14.2
2022-12-11T12:14:52.309Z,14.17
2022-12-11T12:16:54.811Z,14.24
2022-12-11T12:18:47.746Z,14.33
2022-12-11T12:20:47.623Z,14.3
2022-12-11T12:22:47.678Z,14.4
2022-12-11T12:24:47.584Z,14.26
2022-12-11T12:28:02.373Z,14.21
2022-12-11T12:29:33.049Z,14.25
2022-12-11T12:31:32.718Z,14.14
2022-12-11T12:33:32.647Z,14.05
2022-12-11T12:35:32.693Z,13.95
2022-12-11T12:37:32.667Z,13.95
2022-12-11T12:39:32.630Z,14.08
2022-12-11T12:42:39.414Z,13.63
2022-12-11T12:44:39.413Z,13.86
2022-12-11T12:46:39.390Z,13.6
2022-12-11T12:48:39.433Z,13.39
2022-12-11T12:50:39.383Z,13.53
2022-12-11T12:52:39.356Z,13.61
2022-12-11T12:54:39.478Z,13.63
2022-12-11T12:56:39.340Z,13.26
2022-12-11T12:58:35.585Z,13.4
2022-12-11T13:00:35.611Z,13.63
2022-12-11T13:02:35.609Z,13.62
2022-12-11T13:04:54.781Z,12.98
2022-12-11T13:06:35.603Z,13.3
2022-12-11T13:08:35.643Z,13.16
2022-12-11T13:10:35.622Z,13.07
2022-12-11T13:13:12.370Z,13.16
2022-12-11T13:15:12.849Z,13.16
2022-12-11T13:17:12.442Z,13.02
2022-12-11T13:19:12.320Z,12.99
2022-12-11T13:21:12.326Z,12.97
2022-12-11T13:23:12.395Z,12.97
2022-12-11T13:25:12.670Z,13.07
2022-12-11T13:28:12.353Z,12.69
2022-12-11T13:30:12.430Z,12.99
2022-12-11T13:32:12.421Z,12.98
2022-12-11T13:34:12.355Z,12.61
2022-12-11T13:36:16.842Z,12.6
2022-12-11T13:38:12.379Z,12.77
2022-12-11T13:40:12.306Z,12.95
2022-12-11T13:43:09.469Z,12.93
2022-12-11T13:45:09.740Z,12.57
2022-12-11T13:47:09.450Z,12.54
2022-12-11T13:49:09.502Z,12.46
2022-12-11T13:51:09.535Z,12.4
2022-12-11T13:53:09.457Z,12.55
2022-12-11T13:55:09.786Z,12.5
2022-12-11T13:57:09.508Z,12.5
2022-12-11T13:58:56.732Z,12.39
2022-12-11T14:00:56.591Z,12.48
2022-12-11T14:02:56.646Z,12.41
2022-12-11T14:04:56.446Z,12.45
2022-12-11T14:06:56.676Z,12.41
2022-12-11T14:08:56.424Z,12.02
2022-12-11T14:10:56.494Z,12.02
2022-12-11T14:13:54.091Z,12.12
2022-12-11T14:15:54.285Z,12.17
2022-12-11T14:17:54.197Z,12.22
2022-12-11T14:19:54.165Z,12.16
2022-12-11T14:21:54.158Z,12.28
2022-12-11T14:23:54.134Z,12.18
2022-12-11T14:25:54.105Z,12.26
2022-12-11T14:29:04.660Z,12.3
2022-12-11T14:31:04.535Z,12.28
2022-12-11T14:33:04.506Z,12.07
2022-12-11T14:35:04.429Z,12.27
2022-12-11T14:37:04.451Z,11.93
2022-12-11T14:39:04.462Z,11.73
2022-12-11T14:41:04.478Z,11.22
2022-12-11T14:44:13.478Z,11.4
2022-12-11T14:46:13.565Z,11.36
2022-12-11T14:48:13.465Z,11.34
2022-12-11T14:50:13.682Z,11.12
2022-12-11T14:52:13.452Z,11.01
2022-12-11T14:54:17.380Z,10.88
2022-12-11T14:56:13.469Z,10.64
2022-12-11T14:59:39.110Z,10.27
2022-12-11T15:01:39.151Z,10.35
2022-12-11T15:03:39.099Z,10.33
2022-12-11T15:05:41.062Z,9.97
2022-12-11T15:07:39.144Z,9.94
2022-12-11T15:09:39.099Z,9.87
2022-12-11T15:11:39.106Z,10
2022-12-11T15:14:42.821Z,9.94
2022-12-11T15:16:42.861Z,9.77
2022-12-11T15:18:42.854Z,9.45
2022-12-11T15:20:42.794Z,9.24
2022-12-11T15:22:42.912Z,9.13
2022-12-11T15:24:42.836Z,9.32
2022-12-11T15:26:42.799Z,9.25
2022-12-11T15:29:26.092Z,9.2
2022-12-11T15:31:26.092Z,9.07
2022-12-11T15:33:29.704Z,9.28
2022-12-11T15:35:26.091Z,9.29
2022-12-11T15:37:26.083Z,9.26
2022-12-11T15:39:26.099Z,9.2
2022-12-11T15:41:26.136Z,9.12
2022-12-11T15:43:26.047Z,9.07
2022-12-11T15:45:19.975Z,8.95
2022-12-11T15:47:19.994Z,8.87
2022-12-11T15:49:19.987Z,8.88
2022-12-11T15:51:20.048Z,8.75
2022-12-11T15:53:19.969Z,8.78
2022-12-11T15:55:19.952Z,8.67
2022-12-11T15:57:20.024Z,8.64
2022-12-11T16:00:30.619Z,8.63
2022-12-11T16:02:30.630Z,8.53
2022-12-11T16:04:30.816Z,8.37
2022-12-11T16:06:30.665Z,8.4
2022-12-11T16:08:30.633Z,8.2
2022-12-11T16:10:30.599Z,8.22
2022-12-11T16:12:30.770Z,8.03
2022-12-11T16:15:21.607Z,7.96
2022-12-11T16:17:16.170Z,7.99
2022-12-11T16:19:16.250Z,8.15
2022-12-11T16:21:21.166Z,8.34
2022-12-11T16:23:16.430Z,8.29
2022-12-11T16:25:16.193Z,8.19
2022-12-11T16:27:20.030Z,8.06
2022-12-11T16:30:06.390Z,8.03
2022-12-11T16:32:00.643Z,7.91
2022-12-11T16:34:01.845Z,7.93
2022-12-11T16:36:00.510Z,7.98
2022-12-11T16:38:00.634Z,8.01
2022-12-11T16:40:00.551Z,8.04
2022-12-11T16:42:00.530Z,8.04
2022-12-11T16:44:00.607Z,7.78
2022-12-11T16:45:41.354Z,7.94
2022-12-11T16:47:41.332Z,7.99
2022-12-11T16:49:41.264Z,8.03
2022-12-11T16:51:41.281Z,8.02
2022-12-11T16:53:41.320Z,7.88
2022-12-11T16:55:41.278Z,7.74
2022-12-11T16:57:41.324Z,7.74
2022-12-11T17:01:16.535Z,7.63
2022-12-11T17:03:16.390Z,7.62
2022-12-11T17:05:16.303Z,7.72
2022-12-11T17:07:16.345Z,7.74
2022-12-11T17:09:16.324Z,7.64
2022-12-11T17:11:16.319Z,7.64
2022-12-11T17:13:16.361Z,7.57
2022-12-11T17:15:47.604Z,7.55
2022-12-11T17:17:47.560Z,7.5
2022-12-11T17:19:47.709Z,7.53
2022-12-11T17:21:51.360Z,7.43
2022-12-11T17:23:47.594Z,7.42
2022-12-11T17:25:47.554Z,7.51
2022-12-11T17:27:47.572Z,7.53
2022-12-11T17:31:03.529Z,7.45
2022-12-11T17:33:03.424Z,7.4
2022-12-11T17:35:03.447Z,7.33
2022-12-11T17:37:03.486Z,7.41
2022-12-11T17:39:03.550Z,7.41
2022-12-11T17:41:03.423Z,7.26
2022-12-11T17:43:03.430Z,7.15
2022-12-11T17:46:32.947Z,7.16
2022-12-11T17:48:32.836Z,6.86
2022-12-11T17:50:32.886Z,6.91
2022-12-11T17:52:34.990Z,6.94
2022-12-11T17:54:32.975Z,6.77
2022-12-11T17:56:32.815Z,6.84
2022-12-11T17:58:32.888Z,6.73
2022-12-11T18:01:17.914Z,6.57
2022-12-11T18:03:17.889Z,6.58
2022-12-11T18:05:17.968Z,6.48
2022-12-11T18:07:17.890Z,6.42
2022-12-11T18:09:17.884Z,6.35
2022-12-11T18:11:17.814Z,6.28
2022-12-11T18:13:17.836Z,6.37
2022-12-11T18:17:05.172Z,6.3
2022-12-11T18:19:05.129Z,6.27
2022-12-11T18:21:05.129Z,6.3
2022-12-11T18:23:05.134Z,6.3
2022-12-11T18:25:09.645Z,6.33
2022-12-11T18:27:05.141Z,6.1
2022-12-11T18:29:05.141Z,6.08
2022-12-11T18:31:54.118Z,5.93
2022-12-11T18:33:53.910Z,5.95
2022-12-11T18:35:54.079Z,5.87
2022-12-11T18:37:53.917Z,5.8
2022-12-11T18:39:53.944Z,5.79
2022-12-11T18:42:09.880Z,5.76
2022-12-11T18:43:54.967Z,5.64
2022-12-11T18:46:44.548Z,5.38
2022-12-11T18:48:44.548Z,5.38
2022-12-11T18:50:44.493Z,5.25
2022-12-11T18:52:44.879Z,5.31
2022-12-11T18:54:44.615Z,5.34
2022-12-11T18:56:44.494Z,5.33
2022-12-11T18:58:44.752Z,5.31
2022-12-11T19:02:16.930Z,5.31
2022-12-11T19:04:16.802Z,5.21
2022-12-11T19:06:16.827Z,5.05
2022-12-11T19:08:16.934Z,5.04
2022-12-11T19:10:16.826Z,5.11
2022-12-11T19:12:17.260Z,5.02
2022-12-11T19:14:16.846Z,5.01
2022-12-11T19:16:51.835Z,5.13
2022-12-11T19:18:51.850Z,5.26
2022-12-11T19:20:57.932Z,5.25
2022-12-11T19:22:51.835Z,5.24
2022-12-11T19:24:51.848Z,5.25
2022-12-11T19:26:51.808Z,5.23
2022-12-11T19:28:51.861Z,5.26
2022-12-11T19:30:51.845Z,5.34
2022-12-11T19:32:04.984Z,5.35
2022-12-11T19:34:04.955Z,5.39
2022-12-11T19:36:04.951Z,5.5
2022-12-11T19:38:05.049Z,5.51
2022-12-11T19:40:04.954Z,5.58
2022-12-11T19:42:05.012Z,5.45
2022-12-11T19:44:04.927Z,5.45
2022-12-11T19:46:04.950Z,5.3
2022-12-11T19:47:27.017Z,5.29
2022-12-11T19:49:27.038Z,5.21
2022-12-11T19:51:26.860Z,5.28
2022-12-11T19:53:26.806Z,5.13
2022-12-11T19:55:27.088Z,5.22
2022-12-11T19:57:26.840Z,5.14
2022-12-11T19:59:27.184Z,5.27
2022-12-11T20:02:38.070Z,5.26
2022-12-11T20:04:38.002Z,5.19
2022-12-11T20:06:38.021Z,5.26
2022-12-11T20:08:46.150Z,5.19
2022-12-11T20:10:38.024Z,5.24
2022-12-11T20:12:38.041Z,5.26
2022-12-11T20:14:37.998Z,5.35
2022-12-11T20:17:46.658Z,5.37
2022-12-11T20:19:46.611Z,5.22
2022-12-11T20:21:46.605Z,5.17
2022-12-11T20:23:46.581Z,5.03
2022-12-11T20:25:46.578Z,4.96
2022-12-11T20:27:46.609Z,5.1
2022-12-11T20:29:46.574Z,5.1
2022-12-11T20:32:58.224Z,5.15
2022-12-11T20:34:58.181Z,5.09
2022-12-11T20:36:58.232Z,5.22
2022-12-11T20:38:58.175Z,5.35
2022-12-11T20:40:58.198Z,5.3
2022-12-11T20:42:58.190Z,5.28
2022-12-11T20:44:58.173Z,5.27
2022-12-11T20:48:05.857Z,5.19
2022-12-11T20:50:05.832Z,5.1
2022-12-11T20:52:05.844Z,5.2
2022-12-11T20:54:05.812Z,5.17
2022-12-11T20:56:05.822Z,4.87
2022-12-11T20:58:05.832Z,4.89
2022-12-11T21:00:05.809Z,5.08
2022-12-11T21:03:37.602Z,5.18
2022-12-11T21:05:33.900Z,5.24
2022-12-11T21:07:33.798Z,5.47
2022-12-11T21:09:33.846Z,5.44
2022-12-11T21:11:33.804Z,5.44
2022-12-11T21:13:33.851Z,5.5
2022-12-11T21:15:33.821Z,5.53
2022-12-11T21:18:41.750Z,5.6
2022-12-11T21:20:41.719Z,5.51
2022-12-11T21:22:41.763Z,5.6
2022-12-11T21:24:41.750Z,5.45
2022-12-11T21:26:41.729Z,5.53
2022-12-11T21:28:41.709Z,5.47
2022-12-11T21:30:41.747Z,5.38
2022-12-11T21:33:36.599Z,5.48
2022-12-11T21:35:36.604Z,5.37
2022-12-11T21:37:36.566Z,5.44
2022-12-11T21:39:39.235Z,5.42
2022-12-11T21:41:36.572Z,5.23
2022-12-11T21:43:38.093Z,5.27
2022-12-11T21:49:14.124Z,5.41
2022-12-11T21:51:14.118Z,5.13
2022-12-11T21:53:14.127Z,5.24
2022-12-11T21:55:20.067Z,5.33
2022-12-11T21:57:24.471Z,5.41
2022-12-11T21:59:14.168Z,5.43
2022-12-11T22:01:14.128Z,5.47
2022-12-11T22:04:10.410Z,5.55
2022-12-11T22:06:10.458Z,5.58
2022-12-11T22:08:10.431Z,5.52
2022-12-11T22:10:10.401Z,5.07
2022-12-11T22:12:10.402Z,5.22
2022-12-11T22:14:10.483Z,5.35
2022-12-11T22:16:16.409Z,5.2
2022-12-11T22:19:27.797Z,5.44
2022-12-11T22:21:24.509Z,5.19
2022-12-11T22:23:24.522Z,5.27
2022-12-11T22:25:24.530Z,4.94
2022-12-11T22:27:24.513Z,5
2022-12-11T22:29:24.513Z,5.19
2022-12-11T22:31:24.544Z,5.4
2022-12-11T22:34:22.403Z,5.27
2022-12-11T22:36:22.479Z,5.23
2022-12-11T22:38:22.405Z,5
2022-12-11T22:40:22.407Z,4.98
2022-12-11T22:42:22.404Z,5.25
2022-12-11T22:44:22.442Z,4.96
2022-12-11T22:46:22.503Z,4.9
2022-12-11T22:50:07.669Z,5
2022-12-11T22:52:07.663Z,4.82
2022-12-11T22:54:07.674Z,4.81
2022-12-11T22:56:07.710Z,4.96
2022-12-11T22:58:07.868Z,4.99
2022-12-11T23:00:07.738Z,5.07
2022-12-11T23:02:07.768Z,5.14
2022-12-11T23:05:21.064Z,5.02
2022-12-11T23:07:20.862Z,4.54
2022-12-11T23:09:20.969Z,4.72
2022-12-11T23:11:20.983Z,4.97
2022-12-11T23:13:20.862Z,4.8
2022-12-11T23:15:20.716Z,4.46
2022-12-11T23:17:20.706Z,4.68
2022-12-11T23:20:06.435Z,4.86
2022-12-11T23:22:06.452Z,5.01
2022-12-11T23:24:06.497Z,5.11
2022-12-11T23:26:06.468Z,5.2
2022-12-11T23:28:06.472Z,5.12
2022-12-11T23:30:06.432Z,5.24
2022-12-11T23:32:06.422Z,5.24
2022-12-11T23:35:33.369Z,5.34
2022-12-11T23:37:33.376Z,5.4
2022-12-11T23:39:33.375Z,5.24
2022-12-11T23:41:33.410Z,5.14
2022-12-11T23:43:33.407Z,5.1
2022-12-11T23:45:33.369Z,5.05
2022-12-11T23:47:33.412Z,5.05
2022-12-11T23:50:27.729Z,5
2022-12-11T23:52:27.652Z,4.96
2022-12-11T23:54:27.532Z,4.99
2022-12-11T23:56:27.640Z,5.09
2022-12-11T23:58:27.581Z,5.11
